TimePDT,TemperatureF,Dew PointF,Humidity,Sea Level PressureIn,VisibilityMPH,Wind Direction,Wind SpeedMPH,Gust SpeedMPH,PrecipitationIn,Events,Conditions,WindDirDegrees,DateUTC
12:53 AM,63.0,52.0,67,30.15,10.0,Calm,Calm,-,N/A,,Partly Cloudy,0,2012-10-13 07:53:00
1:53 AM,61.0,52.0,72,30.14,10.0,NE,3.5,-,N/A,,Partly Cloudy,40,2012-10-13 08:53:00
2:53 AM,60.1,52.0,75,30.14,10.0,NE,4.6,-,N/A,,Clear,50,2012-10-13 09:53:00
3:53 AM,59.0,53.1,81,30.14,10.0,East,3.5,-,N/A,,Clear,80,2012-10-13 10:53:00
4:53 AM,57.9,53.1,84,30.15,10.0,East,3.5,-,N/A,,Scattered Clouds,80,2012-10-13 11:53:00
5:53 AM,57.9,53.1,84,30.16,10.0,East,4.6,-,N/A,,Clear,80,2012-10-13 12:53:00
6:53 AM,57.9,53.1,84,30.17,10.0,East,4.6,-,N/A,,Partly Cloudy,90,2012-10-13 13:53:00
7:53 AM,60.1,53.1,78,30.18,10.0,ENE,3.5,-,N/A,,Partly Cloudy,70,2012-10-13 14:53:00
8:53 AM,63.0,54.0,72,30.19,10.0,East,5.8,-,N/A,,Scattered Clouds,90,2012-10-13 15:53:00
9:53 AM,66.0,54.0,65,30.19,10.0,Calm,Calm,-,N/A,,Scattered Clouds,0,2012-10-13 16:53:00
10:53 AM,70.0,53.1,55,30.17,10.0,NNW,3.5,-,N/A,,Scattered Clouds,330,2012-10-13 17:53:00
11:53 AM,71.1,54.0,55,30.16,10.0,West,8.1,-,N/A,,Scattered Clouds,260,2012-10-13 18:53:00
12:53 PM,72.0,54.0,53,30.14,10.0,West,12.7,-,N/A,,Scattered Clouds,260,2012-10-13 19:53:00
1:53 PM,71.1,53.1,53,30.11,10.0,West,11.5,-,N/A,,Scattered Clouds,270,2012-10-13 20:53:00
2:53 PM,70.0,54.0,57,30.08,10.0,West,11.5,-,N/A,,Scattered Clouds,280,2012-10-13 21:53:00
3:53 PM,70.0,54.0,57,30.07,10.0,West,11.5,-,N/A,,Scattered Clouds,270,2012-10-13 22:53:00
4:53 PM,69.1,55.9,63,30.06,10.0,West,12.7,-,N/A,,Scattered Clouds,260,2012-10-13 23:53:00
5:53 PM,68.0,55.9,65,30.05,10.0,West,10.4,-,N/A,,Scattered Clouds,260,2012-10-14 00:53:00
6:53 PM,66.0,57.9,75,30.06,10.0,West,11.5,-,N/A,,Scattered Clouds,270,2012-10-14 01:53:00
7:53 PM,66.0,61.0,84,30.06,10.0,West,9.2,-,N/A,,Partly Cloudy,270,2012-10-14 02:53:00
8:53 PM,66.0,60.1,81,30.06,10.0,West,5.8,-,N/A,,Clear,270,2012-10-14 03:53:00
9:53 PM,66.0,60.1,81,30.07,10.0,West,6.9,-,N/A,,Clear,270,2012-10-14 04:53:00
10:53 PM,66.0,61.0,84,30.07,10.0,Calm,Calm,-,N/A,,Clear,0,2012-10-14 05:53:00
11:53 PM,64.9,60.1,84,30.06,10.0,Calm,Calm,-,N/A,,Clear,0,2012-10-14 06:53:00